sensor_id;sensor_type;location;lat;lon;timestamp;P1;durP1;ratioP1;P2;durP2;ratioP2
19436;SDS011;9854;50.968;4.168;2023-07-13T00:00:37;8.65;;;2.13;;
19436;SDS011;9854;50.968;4.168;2023-07-13T00:03:03;6.32;;;2.30;;
19436;SDS011;9854;50.968;4.168;2023-07-13T00:05:29;6.53;;;1.98;;
19436;SDS011;9854;50.968;4.168;2023-07-13T00:07:55;5.72;;;2.20;;
19436;SDS011;9854;50.968;4.168;2023-07-13T00:10:21;13.88;;;2.90;;
19436;SDS011;9854;50.968;4.168;2023-07-13T00:12:47;6.60;;;2.03;;
19436;SDS011;9854;50.968;4.168;2023-07-13T00:15:20;10.15;;;2.05;;
19436;SDS011;9854;50.968;4.168;2023-07-13T00:17:54;6.13;;;2.25;;
19436;SDS011;9854;50.968;4.168;2023-07-13T00:20:21;8.82;;;2.05;;
19436;SDS011;9854;50.968;4.168;2023-07-13T00:22:49;7.47;;;2.13;;
19436;SDS011;9854;50.968;4.168;2023-07-13T00:25:17;11.32;;;2.80;;
19436;SDS011;9854;50.968;4.168;2023-07-13T00:27:43;5.90;;;1.70;;
19436;SDS011;9854;50.968;4.168;2023-07-13T00:30:09;9.88;;;2.15;;
19436;SDS011;9854;50.968;4.168;2023-07-13T00:32:36;5.45;;;1.92;;
19436;SDS011;9854;50.968;4.168;2023-07-13T00:35:02;9.15;;;1.90;;
19436;SDS011;9854;50.968;4.168;2023-07-13T00:37:29;9.68;;;2.35;;
19436;SDS011;9854;50.968;4.168;2023-07-13T00:39:55;10.80;;;2.28;;
19436;SDS011;9854;50.968;4.168;2023-07-13T00:42:21;7.43;;;1.83;;
19436;SDS011;9854;50.968;4.168;2023-07-13T00:47:37;8.32;;;2.15;;
19436;SDS011;9854;50.968;4.168;2023-07-13T00:50:03;8.18;;;2.20;;
19436;SDS011;9854;50.968;4.168;2023-07-13T00:52:38;11.38;;;2.42;;
19436;SDS011;9854;50.968;4.168;2023-07-13T00:55:06;9.35;;;2.40;;
19436;SDS011;9854;50.968;4.168;2023-07-13T00:57:34;8.00;;;3.03;;
19436;SDS011;9854;50.968;4.168;2023-07-13T01:00:00;10.27;;;2.30;;
19436;SDS011;9854;50.968;4.168;2023-07-13T01:02:31;11.77;;;2.90;;
19436;SDS011;9854;50.968;4.168;2023-07-13T01:04:58;12.05;;;2.83;;
19436;SDS011;9854;50.968;4.168;2023-07-13T01:07:24;11.75;;;2.63;;
19436;SDS011;9854;50.968;4.168;2023-07-13T01:09:50;8.52;;;2.30;;
19436;SDS011;9854;50.968;4.168;2023-07-13T01:12:16;10.10;;;2.47;;
19436;SDS011;9854;50.968;4.168;2023-07-13T01:14:41;10.55;;;2.65;;
19436;SDS011;9854;50.968;4.168;2023-07-13T01:17:10;10.68;;;2.60;;
19436;SDS011;9854;50.968;4.168;2023-07-13T01:19:41;13.80;;;2.65;;
19436;SDS011;9854;50.968;4.168;2023-07-13T01:22:13;10.52;;;2.50;;
19436;SDS011;9854;50.968;4.168;2023-07-13T01:24:41;10.65;;;3.00;;
19436;SDS011;9854;50.968;4.168;2023-07-13T01:27:09;10.95;;;2.60;;
19436;SDS011;9854;50.968;4.168;2023-07-13T01:29:36;8.93;;;2.42;;
19436;SDS011;9854;50.968;4.168;2023-07-13T01:32:07;8.77;;;2.70;;
19436;SDS011;9854;50.968;4.168;2023-07-13T01:34:33;7.40;;;2.38;;
19436;SDS011;9854;50.968;4.168;2023-07-13T01:36:59;11.32;;;2.53;;
19436;SDS011;9854;50.968;4.168;2023-07-13T01:39:25;8.98;;;2.28;;
19436;SDS011;9854;50.968;4.168;2023-07-13T01:41:50;10.07;;;2.50;;
19436;SDS011;9854;50.968;4.168;2023-07-13T01:44:16;7.05;;;2.58;;
19436;SDS011;9854;50.968;4.168;2023-07-13T01:46:41;11.35;;;3.20;;
19436;SDS011;9854;50.968;4.168;2023-07-13T01:49:07;8.23;;;2.58;;
19436;SDS011;9854;50.968;4.168;2023-07-13T01:51:33;12.32;;;3.00;;
19436;SDS011;9854;50.968;4.168;2023-07-13T01:53:58;11.32;;;2.42;;
19436;SDS011;9854;50.968;4.168;2023-07-13T01:56:24;10.13;;;2.72;;
19436;SDS011;9854;50.968;4.168;2023-07-13T01:58:49;12.25;;;3.28;;
19436;SDS011;9854;50.968;4.168;2023-07-13T02:01:16;12.40;;;2.80;;
19436;SDS011;9854;50.968;4.168;2023-07-13T02:03:42;6.82;;;2.35;;
19436;SDS011;9854;50.968;4.168;2023-07-13T02:06:08;9.02;;;2.92;;
19436;SDS011;9854;50.968;4.168;2023-07-13T02:08:33;13.23;;;3.22;;
19436;SDS011;9854;50.968;4.168;2023-07-13T02:10:59;12.98;;;2.50;;
19436;SDS011;9854;50.968;4.168;2023-07-13T02:13:25;13.02;;;2.72;;
19436;SDS011;9854;50.968;4.168;2023-07-13T02:15:51;6.30;;;2.78;;
19436;SDS011;9854;50.968;4.168;2023-07-13T02:18:17;9.45;;;2.55;;
19436;SDS011;9854;50.968;4.168;2023-07-13T02:20:43;10.80;;;3.03;;
19436;SDS011;9854;50.968;4.168;2023-07-13T02:23:08;11.27;;;3.25;;
19436;SDS011;9854;50.968;4.168;2023-07-13T02:25:34;13.93;;;3.13;;
19436;SDS011;9854;50.968;4.168;2023-07-13T02:28:00;8.02;;;2.80;;
19436;SDS011;9854;50.968;4.168;2023-07-13T02:30:26;10.30;;;3.25;;
19436;SDS011;9854;50.968;4.168;2023-07-13T02:32:54;8.88;;;2.60;;
19436;SDS011;9854;50.968;4.168;2023-07-13T02:35:20;14.18;;;2.90;;
19436;SDS011;9854;50.968;4.168;2023-07-13T02:37:46;7.22;;;2.50;;
19436;SDS011;9854;50.968;4.168;2023-07-13T02:40:12;9.68;;;2.72;;
19436;SDS011;9854;50.968;4.168;2023-07-13T02:42:38;9.60;;;2.55;;
19436;SDS011;9854;50.968;4.168;2023-07-13T02:45:04;13.70;;;2.95;;
19436;SDS011;9854;50.968;4.168;2023-07-13T02:47:31;13.93;;;3.78;;
19436;SDS011;9854;50.968;4.168;2023-07-13T02:49:57;14.40;;;3.10;;
19436;SDS011;9854;50.968;4.168;2023-07-13T02:52:22;10.27;;;3.15;;
19436;SDS011;9854;50.968;4.168;2023-07-13T02:54:48;12.45;;;3.13;;
19436;SDS011;9854;50.968;4.168;2023-07-13T02:57:14;14.98;;;3.40;;
19436;SDS011;9854;50.968;4.168;2023-07-13T02:59:39;13.38;;;3.38;;
19436;SDS011;9854;50.968;4.168;2023-07-13T03:02:05;10.63;;;3.17;;
19436;SDS011;9854;50.968;4.168;2023-07-13T03:04:30;16.60;;;3.25;;
19436;SDS011;9854;50.968;4.168;2023-07-13T03:06:56;17.00;;;3.50;;
19436;SDS011;9854;50.968;4.168;2023-07-13T03:09:23;12.25;;;2.90;;
19436;SDS011;9854;50.968;4.168;2023-07-13T03:11:49;14.10;;;3.40;;
19436;SDS011;9854;50.968;4.168;2023-07-13T03:14:17;14.52;;;4.00;;
19436;SDS011;9854;50.968;4.168;2023-07-13T03:16:42;14.40;;;3.33;;
19436;SDS011;9854;50.968;4.168;2023-07-13T03:19:08;13.57;;;3.25;;
19436;SDS011;9854;50.968;4.168;2023-07-13T03:21:34;15.57;;;3.75;;
19436;SDS011;9854;50.968;4.168;2023-07-13T03:23:59;13.93;;;3.35;;
19436;SDS011;9854;50.968;4.168;2023-07-13T03:26:25;16.45;;;3.83;;
19436;SDS011;9854;50.968;4.168;2023-07-13T03:28:51;11.02;;;3.70;;
19436;SDS011;9854;50.968;4.168;2023-07-13T03:31:21;14.18;;;3.88;;
19436;SDS011;9854;50.968;4.168;2023-07-13T03:33:50;11.45;;;3.45;;
19436;SDS011;9854;50.968;4.168;2023-07-13T03:36:19;12.95;;;3.30;;
19436;SDS011;9854;50.968;4.168;2023-07-13T03:38:48;13.23;;;3.85;;
19436;SDS011;9854;50.968;4.168;2023-07-13T03:41:15;15.27;;;4.28;;
19436;SDS011;9854;50.968;4.168;2023-07-13T03:43:41;20.73;;;4.07;;
19436;SDS011;9854;50.968;4.168;2023-07-13T03:46:07;12.05;;;3.15;;
19436;SDS011;9854;50.968;4.168;2023-07-13T03:48:34;12.80;;;3.60;;
19436;SDS011;9854;50.968;4.168;2023-07-13T03:50:59;14.77;;;3.92;;
19436;SDS011;9854;50.968;4.168;2023-07-13T03:53:25;15.43;;;3.65;;
19436;SDS011;9854;50.968;4.168;2023-07-13T03:55:51;19.73;;;4.18;;
19436;SDS011;9854;50.968;4.168;2023-07-13T03:58:23;10.50;;;3.90;;
19436;SDS011;9854;50.968;4.168;2023-07-13T04:00:49;18.17;;;4.10;;
19436;SDS011;9854;50.968;4.168;2023-07-13T04:03:15;10.20;;;3.15;;
19436;SDS011;9854;50.968;4.168;2023-07-13T04:05:41;14.07;;;3.72;;
19436;SDS011;9854;50.968;4.168;2023-07-13T04:08:07;15.57;;;4.53;;
19436;SDS011;9854;50.968;4.168;2023-07-13T04:10:32;13.95;;;4.03;;
19436;SDS011;9854;50.968;4.168;2023-07-13T04:12:58;13.15;;;3.38;;
19436;SDS011;9854;50.968;4.168;2023-07-13T04:15:24;14.90;;;3.70;;
19436;SDS011;9854;50.968;4.168;2023-07-13T04:17:49;15.82;;;4.07;;
19436;SDS011;9854;50.968;4.168;2023-07-13T04:20:15;12.48;;;3.90;;
19436;SDS011;9854;50.968;4.168;2023-07-13T04:22:41;14.27;;;4.22;;
19436;SDS011;9854;50.968;4.168;2023-07-13T04:25:06;17.98;;;4.00;;
19436;SDS011;9854;50.968;4.168;2023-07-13T04:27:32;19.52;;;4.40;;
19436;SDS011;9854;50.968;4.168;2023-07-13T04:29:58;18.83;;;4.13;;
19436;SDS011;9854;50.968;4.168;2023-07-13T04:32:23;15.35;;;4.20;;
19436;SDS011;9854;50.968;4.168;2023-07-13T04:34:49;18.88;;;4.10;;
19436;SDS011;9854;50.968;4.168;2023-07-13T04:37:18;17.75;;;3.97;;
19436;SDS011;9854;50.968;4.168;2023-07-13T04:39:45;17.52;;;4.00;;
19436;SDS011;9854;50.968;4.168;2023-07-13T04:42:10;10.63;;;3.70;;
19436;SDS011;9854;50.968;4.168;2023-07-13T04:44:36;18.63;;;4.72;;
19436;SDS011;9854;50.968;4.168;2023-07-13T04:47:02;16.30;;;4.40;;
19436;SDS011;9854;50.968;4.168;2023-07-13T04:49:27;18.85;;;4.07;;
19436;SDS011;9854;50.968;4.168;2023-07-13T04:51:53;15.55;;;3.97;;
19436;SDS011;9854;50.968;4.168;2023-07-13T04:54:19;14.50;;;3.95;;
19436;SDS011;9854;50.968;4.168;2023-07-13T04:56:46;17.42;;;3.92;;
19436;SDS011;9854;50.968;4.168;2023-07-13T04:59:11;17.15;;;4.00;;
19436;SDS011;9854;50.968;4.168;2023-07-13T05:01:37;18.75;;;3.78;;
19436;SDS011;9854;50.968;4.168;2023-07-13T05:04:02;14.75;;;4.22;;
19436;SDS011;9854;50.968;4.168;2023-07-13T05:06:28;17.02;;;4.28;;
19436;SDS011;9854;50.968;4.168;2023-07-13T05:08:55;16.08;;;4.20;;
19436;SDS011;9854;50.968;4.168;2023-07-13T05:11:21;22.23;;;3.83;;
19436;SDS011;9854;50.968;4.168;2023-07-13T05:13:47;18.75;;;4.32;;
19436;SDS011;9854;50.968;4.168;2023-07-13T05:16:12;15.48;;;3.75;;
19436;SDS011;9854;50.968;4.168;2023-07-13T05:18:38;18.38;;;4.70;;
19436;SDS011;9854;50.968;4.168;2023-07-13T05:21:05;15.10;;;4.07;;
19436;SDS011;9854;50.968;4.168;2023-07-13T05:23:32;13.82;;;4.20;;
19436;SDS011;9854;50.968;4.168;2023-07-13T05:25:59;12.25;;;3.92;;
19436;SDS011;9854;50.968;4.168;2023-07-13T05:28:25;20.17;;;4.85;;
19436;SDS011;9854;50.968;4.168;2023-07-13T05:30:52;15.43;;;3.85;;
19436;SDS011;9854;50.968;4.168;2023-07-13T05:33:19;20.77;;;4.13;;
19436;SDS011;9854;50.968;4.168;2023-07-13T05:35:45;17.02;;;4.03;;
19436;SDS011;9854;50.968;4.168;2023-07-13T05:38:11;15.40;;;4.50;;
19436;SDS011;9854;50.968;4.168;2023-07-13T05:40:36;22.67;;;4.25;;
19436;SDS011;9854;50.968;4.168;2023-07-13T05:43:02;17.70;;;4.32;;
19436;SDS011;9854;50.968;4.168;2023-07-13T05:45:28;14.88;;;4.13;;
19436;SDS011;9854;50.968;4.168;2023-07-13T05:47:54;13.10;;;4.15;;
19436;SDS011;9854;50.968;4.168;2023-07-13T05:50:19;15.55;;;3.85;;
19436;SDS011;9854;50.968;4.168;2023-07-13T05:52:46;17.48;;;4.40;;
19436;SDS011;9854;50.968;4.168;2023-07-13T05:55:12;17.33;;;4.45;;
19436;SDS011;9854;50.968;4.168;2023-07-13T05:57:38;17.67;;;4.78;;
19436;SDS011;9854;50.968;4.168;2023-07-13T06:00:03;19.65;;;4.55;;
19436;SDS011;9854;50.968;4.168;2023-07-13T06:02:29;15.30;;;4.45;;
19436;SDS011;9854;50.968;4.168;2023-07-13T06:04:55;18.95;;;4.43;;
19436;SDS011;9854;50.968;4.168;2023-07-13T06:07:21;17.42;;;3.95;;
19436;SDS011;9854;50.968;4.168;2023-07-13T06:09:46;17.70;;;4.40;;
19436;SDS011;9854;50.968;4.168;2023-07-13T06:12:12;11.68;;;3.45;;
19436;SDS011;9854;50.968;4.168;2023-07-13T06:14:37;13.40;;;3.88;;
19436;SDS011;9854;50.968;4.168;2023-07-13T06:17:03;17.25;;;3.92;;
19436;SDS011;9854;50.968;4.168;2023-07-13T06:19:29;16.58;;;4.10;;
19436;SDS011;9854;50.968;4.168;2023-07-13T06:21:55;18.13;;;5.13;;
19436;SDS011;9854;50.968;4.168;2023-07-13T06:24:21;18.20;;;4.18;;
19436;SDS011;9854;50.968;4.168;2023-07-13T06:26:47;18.70;;;4.53;;
19436;SDS011;9854;50.968;4.168;2023-07-13T06:29:12;19.10;;;3.58;;
19436;SDS011;9854;50.968;4.168;2023-07-13T06:31:38;19.67;;;4.10;;
19436;SDS011;9854;50.968;4.168;2023-07-13T06:34:04;19.92;;;4.45;;
19436;SDS011;9854;50.968;4.168;2023-07-13T06:36:29;15.98;;;4.05;;
19436;SDS011;9854;50.968;4.168;2023-07-13T06:38:55;13.15;;;3.63;;
19436;SDS011;9854;50.968;4.168;2023-07-13T06:41:20;20.92;;;4.30;;
19436;SDS011;9854;50.968;4.168;2023-07-13T06:43:47;19.92;;;4.07;;
19436;SDS011;9854;50.968;4.168;2023-07-13T06:46:13;27.80;;;4.25;;
19436;SDS011;9854;50.968;4.168;2023-07-13T06:48:38;19.90;;;4.43;;
19436;SDS011;9854;50.968;4.168;2023-07-13T06:51:04;18.95;;;4.32;;
19436;SDS011;9854;50.968;4.168;2023-07-13T06:53:30;13.13;;;4.65;;
19436;SDS011;9854;50.968;4.168;2023-07-13T06:55:55;21.63;;;5.22;;
19436;SDS011;9854;50.968;4.168;2023-07-13T06:58:21;17.13;;;4.32;;
19436;SDS011;9854;50.968;4.168;2023-07-13T07:00:49;19.70;;;4.38;;
19436;SDS011;9854;50.968;4.168;2023-07-13T07:03:16;13.43;;;4.03;;
19436;SDS011;9854;50.968;4.168;2023-07-13T07:05:42;20.33;;;4.05;;
19436;SDS011;9854;50.968;4.168;2023-07-13T07:08:08;12.48;;;3.95;;
19436;SDS011;9854;50.968;4.168;2023-07-13T07:10:34;13.90;;;3.95;;
19436;SDS011;9854;50.968;4.168;2023-07-13T07:13:00;15.65;;;4.30;;
19436;SDS011;9854;50.968;4.168;2023-07-13T07:15:26;19.45;;;5.00;;
19436;SDS011;9854;50.968;4.168;2023-07-13T07:17:53;15.57;;;4.32;;
19436;SDS011;9854;50.968;4.168;2023-07-13T07:20:19;20.08;;;4.28;;
19436;SDS011;9854;50.968;4.168;2023-07-13T07:22:45;20.60;;;3.70;;
19436;SDS011;9854;50.968;4.168;2023-07-13T07:25:11;16.65;;;4.15;;
19436;SDS011;9854;50.968;4.168;2023-07-13T07:27:37;14.98;;;4.63;;
19436;SDS011;9854;50.968;4.168;2023-07-13T07:30:03;13.90;;;3.63;;
19436;SDS011;9854;50.968;4.168;2023-07-13T07:32:30;20.83;;;4.28;;
19436;SDS011;9854;50.968;4.168;2023-07-13T07:34:56;18.67;;;4.35;;
19436;SDS011;9854;50.968;4.168;2023-07-13T07:37:23;20.15;;;4.20;;
19436;SDS011;9854;50.968;4.168;2023-07-13T07:39:49;15.23;;;4.20;;
19436;SDS011;9854;50.968;4.168;2023-07-13T07:42:15;15.82;;;3.70;;
19436;SDS011;9854;50.968;4.168;2023-07-13T07:44:41;16.42;;;3.88;;
19436;SDS011;9854;50.968;4.168;2023-07-13T07:47:07;18.65;;;3.40;;
19436;SDS011;9854;50.968;4.168;2023-07-13T07:49:33;16.90;;;4.03;;
19436;SDS011;9854;50.968;4.168;2023-07-13T07:52:00;13.13;;;3.90;;
19436;SDS011;9854;50.968;4.168;2023-07-13T07:54:26;15.85;;;3.90;;
19436;SDS011;9854;50.968;4.168;2023-07-13T07:56:51;11.10;;;3.05;;
19436;SDS011;9854;50.968;4.168;2023-07-13T07:59:18;14.05;;;3.75;;
19436;SDS011;9854;50.968;4.168;2023-07-13T08:01:44;12.95;;;3.28;;
19436;SDS011;9854;50.968;4.168;2023-07-13T08:04:11;10.93;;;3.75;;
19436;SDS011;9854;50.968;4.168;2023-07-13T08:06:37;14.85;;;3.60;;
19436;SDS011;9854;50.968;4.168;2023-07-13T08:09:02;14.23;;;3.60;;
19436;SDS011;9854;50.968;4.168;2023-07-13T08:11:29;14.65;;;3.28;;
19436;SDS011;9854;50.968;4.168;2023-07-13T08:13:55;16.10;;;2.90;;
19436;SDS011;9854;50.968;4.168;2023-07-13T08:16:20;9.55;;;2.83;;
19436;SDS011;9854;50.968;4.168;2023-07-13T08:18:47;11.38;;;3.35;;
19436;SDS011;9854;50.968;4.168;2023-07-13T08:21:12;13.95;;;2.78;;
19436;SDS011;9854;50.968;4.168;2023-07-13T08:23:38;14.90;;;3.17;;
19436;SDS011;9854;50.968;4.168;2023-07-13T08:26:04;14.90;;;3.58;;
19436;SDS011;9854;50.968;4.168;2023-07-13T08:28:29;9.35;;;2.63;;
19436;SDS011;9854;50.968;4.168;2023-07-13T08:31:04;12.30;;;3.40;;
19436;SDS011;9854;50.968;4.168;2023-07-13T08:33:31;11.70;;;3.10;;
19436;SDS011;9854;50.968;4.168;2023-07-13T08:35:56;17.13;;;3.80;;
19436;SDS011;9854;50.968;4.168;2023-07-13T08:38:22;14.40;;;2.58;;
19436;SDS011;9854;50.968;4.168;2023-07-13T08:40:52;10.80;;;2.97;;
19436;SDS011;9854;50.968;4.168;2023-07-13T08:43:27;12.13;;;2.97;;
19436;SDS011;9854;50.968;4.168;2023-07-13T08:46:01;12.27;;;3.30;;
19436;SDS011;9854;50.968;4.168;2023-07-13T08:48:52;16.40;;;3.30;;
19436;SDS011;9854;50.968;4.168;2023-07-13T08:51:38;9.63;;;2.90;;
19436;SDS011;9854;50.968;4.168;2023-07-13T08:56:55;14.68;;;3.00;;
19436;SDS011;9854;50.968;4.168;2023-07-13T08:59:24;9.27;;;2.53;;
19436;SDS011;9854;50.968;4.168;2023-07-13T09:04:50;13.93;;;2.67;;
19436;SDS011;9854;50.968;4.168;2023-07-13T09:07:39;11.32;;;2.40;;
19436;SDS011;9854;50.968;4.168;2023-07-13T09:10:21;9.43;;;3.03;;
19436;SDS011;9854;50.968;4.168;2023-07-13T09:12:57;9.43;;;2.42;;
19436;SDS011;9854;50.968;4.168;2023-07-13T09:15:27;10.68;;;2.72;;
19436;SDS011;9854;50.968;4.168;2023-07-13T09:17:57;9.50;;;2.42;;
19436;SDS011;9854;50.968;4.168;2023-07-13T09:20:30;16.52;;;2.80;;
19436;SDS011;9854;50.968;4.168;2023-07-13T09:23:00;14.10;;;3.15;;
19436;SDS011;9854;50.968;4.168;2023-07-13T09:25:31;8.10;;;2.35;;
19436;SDS011;9854;50.968;4.168;2023-07-13T09:28:15;11.77;;;2.53;;
19436;SDS011;9854;50.968;4.168;2023-07-13T09:33:31;8.80;;;1.98;;
19436;SDS011;9854;50.968;4.168;2023-07-13T09:35:57;9.68;;;2.25;;
19436;SDS011;9854;50.968;4.168;2023-07-13T09:38:27;9.77;;;2.38;;
19436;SDS011;9854;50.968;4.168;2023-07-13T09:46:25;10.13;;;2.15;;
19436;SDS011;9854;50.968;4.168;2023-07-13T09:48:51;6.90;;;2.30;;
19436;SDS011;9854;50.968;4.168;2023-07-13T09:51:17;9.45;;;2.33;;
19436;SDS011;9854;50.968;4.168;2023-07-13T09:53:43;9.00;;;1.75;;
19436;SDS011;9854;50.968;4.168;2023-07-13T09:56:22;11.23;;;3.05;;
19436;SDS011;9854;50.968;4.168;2023-07-13T09:58:51;9.38;;;2.30;;
19436;SDS011;9854;50.968;4.168;2023-07-13T10:01:31;12.00;;;2.50;;
19436;SDS011;9854;50.968;4.168;2023-07-13T10:04:02;5.32;;;2.00;;
19436;SDS011;9854;50.968;4.168;2023-07-13T10:06:37;11.18;;;2.60;;
19436;SDS011;9854;50.968;4.168;2023-07-13T10:09:07;6.32;;;2.13;;
19436;SDS011;9854;50.968;4.168;2023-07-13T10:11:34;13.45;;;1.98;;
19436;SDS011;9854;50.968;4.168;2023-07-13T10:14:13;4.05;;;1.60;;
19436;SDS011;9854;50.968;4.168;2023-07-13T10:16:41;4.60;;;1.85;;
19436;SDS011;9854;50.968;4.168;2023-07-13T10:19:14;6.80;;;1.85;;
19436;SDS011;9854;50.968;4.168;2023-07-13T10:21:53;6.97;;;2.10;;
19436;SDS011;9854;50.968;4.168;2023-07-13T10:24:25;5.40;;;1.70;;
19436;SDS011;9854;50.968;4.168;2023-07-13T10:29:29;9.68;;;1.60;;
19436;SDS011;9854;50.968;4.168;2023-07-13T10:32:00;7.47;;;2.15;;
19436;SDS011;9854;50.968;4.168;2023-07-13T10:34:25;7.13;;;1.90;;
19436;SDS011;9854;50.968;4.168;2023-07-13T10:36:52;5.93;;;1.92;;
19436;SDS011;9854;50.968;4.168;2023-07-13T10:39:26;5.45;;;1.77;;
19436;SDS011;9854;50.968;4.168;2023-07-13T10:41:59;7.10;;;1.83;;
19436;SDS011;9854;50.968;4.168;2023-07-13T10:44:31;5.85;;;1.65;;
19436;SDS011;9854;50.968;4.168;2023-07-13T10:47:02;3.80;;;1.52;;
19436;SDS011;9854;50.968;4.168;2023-07-13T10:49:33;9.65;;;1.70;;
19436;SDS011;9854;50.968;4.168;2023-07-13T10:52:00;7.18;;;2.35;;
19436;SDS011;9854;50.968;4.168;2023-07-13T10:59:42;8.77;;;2.45;;
19436;SDS011;9854;50.968;4.168;2023-07-13T11:02:16;7.68;;;1.80;;
19436;SDS011;9854;50.968;4.168;2023-07-13T11:04:50;6.38;;;2.30;;
19436;SDS011;9854;50.968;4.168;2023-07-13T11:07:22;6.35;;;2.33;;
19436;SDS011;9854;50.968;4.168;2023-07-13T11:09:55;8.68;;;2.30;;
19436;SDS011;9854;50.968;4.168;2023-07-13T11:20:09;6.15;;;1.80;;
19436;SDS011;9854;50.968;4.168;2023-07-13T11:25:21;7.53;;;1.85;;
19436;SDS011;9854;50.968;4.168;2023-07-13T11:28:15;6.93;;;2.30;;
19436;SDS011;9854;50.968;4.168;2023-07-13T11:33:31;5.25;;;1.92;;
19436;SDS011;9854;50.968;4.168;2023-07-13T11:36:14;3.70;;;1.65;;
19436;SDS011;9854;50.968;4.168;2023-07-13T11:38:42;4.75;;;1.70;;
19436;SDS011;9854;50.968;4.168;2023-07-13T11:41:25;5.50;;;1.65;;
19436;SDS011;9854;50.968;4.168;2023-07-13T11:43:54;4.47;;;1.73;;
19436;SDS011;9854;50.968;4.168;2023-07-13T11:46:27;11.60;;;1.67;;
19436;SDS011;9854;50.968;4.168;2023-07-13T11:48:53;23.58;;;3.92;;
19436;SDS011;9854;50.968;4.168;2023-07-13T11:51:23;13.75;;;2.55;;
19436;SDS011;9854;50.968;4.168;2023-07-13T11:53:53;8.10;;;2.22;;
19436;SDS011;9854;50.968;4.168;2023-07-13T11:56:20;8.45;;;2.45;;
19436;SDS011;9854;50.968;4.168;2023-07-13T11:58:51;4.35;;;1.92;;
19436;SDS011;9854;50.968;4.168;2023-07-13T12:01:22;5.45;;;2.50;;
19436;SDS011;9854;50.968;4.168;2023-07-13T12:03:50;7.57;;;2.78;;
19436;SDS011;9854;50.968;4.168;2023-07-13T12:06:26;8.57;;;2.58;;
19436;SDS011;9854;50.968;4.168;2023-07-13T12:09:00;3.88;;;2.75;;
19436;SDS011;9854;50.968;4.168;2023-07-13T12:11:28;4.68;;;3.13;;
19436;SDS011;9854;50.968;4.168;2023-07-13T12:13:54;3.97;;;2.63;;
19436;SDS011;9854;50.968;4.168;2023-07-13T12:18:55;5.10;;;2.53;;
19436;SDS011;9854;50.968;4.168;2023-07-13T12:21:23;6.40;;;2.85;;
19436;SDS011;9854;50.968;4.168;2023-07-13T12:23:56;5.72;;;3.35;;
19436;SDS011;9854;50.968;4.168;2023-07-13T12:26:21;10.52;;;2.95;;
19436;SDS011;9854;50.968;4.168;2023-07-13T12:28:48;8.80;;;3.13;;
19436;SDS011;9854;50.968;4.168;2023-07-13T12:31:33;5.47;;;2.70;;
19436;SDS011;9854;50.968;4.168;2023-07-13T12:36:37;2.88;;;2.13;;
19436;SDS011;9854;50.968;4.168;2023-07-13T12:39:17;5.13;;;2.17;;
19436;SDS011;9854;50.968;4.168;2023-07-13T12:44:49;5.75;;;1.90;;
19436;SDS011;9854;50.968;4.168;2023-07-13T12:47:15;4.97;;;2.42;;
19436;SDS011;9854;50.968;4.168;2023-07-13T12:49:47;5.63;;;1.90;;
19436;SDS011;9854;50.968;4.168;2023-07-13T12:52:16;6.32;;;2.13;;
19436;SDS011;9854;50.968;4.168;2023-07-13T12:54:56;5.88;;;1.90;;
19436;SDS011;9854;50.968;4.168;2023-07-13T12:57:23;4.85;;;1.70;;
19436;SDS011;9854;50.968;4.168;2023-07-13T12:59:53;2.33;;;1.60;;
19436;SDS011;9854;50.968;4.168;2023-07-13T13:02:26;8.32;;;2.08;;
19436;SDS011;9854;50.968;4.168;2023-07-13T13:04:56;8.50;;;1.98;;
19436;SDS011;9854;50.968;4.168;2023-07-13T13:07:23;3.50;;;1.50;;
19436;SDS011;9854;50.968;4.168;2023-07-13T13:09:49;6.07;;;2.47;;
19436;SDS011;9854;50.968;4.168;2023-07-13T13:12:15;4.43;;;1.83;;
19436;SDS011;9854;50.968;4.168;2023-07-13T13:14:42;6.40;;;1.75;;
19436;SDS011;9854;50.968;4.168;2023-07-13T13:17:21;5.03;;;2.03;;
19436;SDS011;9854;50.968;4.168;2023-07-13T13:19:50;4.47;;;2.00;;
19436;SDS011;9854;50.968;4.168;2023-07-13T13:22:19;5.28;;;1.67;;
19436;SDS011;9854;50.968;4.168;2023-07-13T13:24:45;3.65;;;1.27;;
19436;SDS011;9854;50.968;4.168;2023-07-13T13:27:21;5.63;;;2.08;;
19436;SDS011;9854;50.968;4.168;2023-07-13T13:29:49;4.60;;;1.33;;
19436;SDS011;9854;50.968;4.168;2023-07-13T13:32:17;3.78;;;1.60;;
19436;SDS011;9854;50.968;4.168;2023-07-13T13:34:44;3.30;;;1.75;;
19436;SDS011;9854;50.968;4.168;2023-07-13T13:37:16;4.78;;;1.92;;
19436;SDS011;9854;50.968;4.168;2023-07-13T13:39:44;17.88;;;1.70;;
19436;SDS011;9854;50.968;4.168;2023-07-13T13:42:10;4.60;;;1.95;;
19436;SDS011;9854;50.968;4.168;2023-07-13T13:44:36;6.15;;;1.70;;
19436;SDS011;9854;50.968;4.168;2023-07-13T13:47:02;4.55;;;1.88;;
19436;SDS011;9854;50.968;4.168;2023-07-13T13:49:28;3.55;;;1.40;;
19436;SDS011;9854;50.968;4.168;2023-07-13T13:51:55;3.10;;;1.40;;
19436;SDS011;9854;50.968;4.168;2023-07-13T13:54:22;8.32;;;1.70;;
19436;SDS011;9854;50.968;4.168;2023-07-13T13:56:50;5.47;;;1.83;;
19436;SDS011;9854;50.968;4.168;2023-07-13T13:59:17;5.57;;;1.60;;
19436;SDS011;9854;50.968;4.168;2023-07-13T14:01:44;7.95;;;1.92;;
19436;SDS011;9854;50.968;4.168;2023-07-13T14:04:15;4.05;;;1.98;;
19436;SDS011;9854;50.968;4.168;2023-07-13T14:06:46;8.65;;;1.90;;
19436;SDS011;9854;50.968;4.168;2023-07-13T14:09:14;5.10;;;1.75;;
19436;SDS011;9854;50.968;4.168;2023-07-13T14:11:47;5.05;;;2.13;;
19436;SDS011;9854;50.968;4.168;2023-07-13T14:14:17;4.22;;;1.75;;
19436;SDS011;9854;50.968;4.168;2023-07-13T14:16:45;6.22;;;2.00;;
19436;SDS011;9854;50.968;4.168;2023-07-13T14:19:18;8.43;;;2.95;;
19436;SDS011;9854;50.968;4.168;2023-07-13T14:21:44;8.93;;;1.95;;
19436;SDS011;9854;50.968;4.168;2023-07-13T14:24:09;5.80;;;2.03;;
19436;SDS011;9854;50.968;4.168;2023-07-13T14:26:37;6.40;;;2.05;;
19436;SDS011;9854;50.968;4.168;2023-07-13T14:29:05;8.95;;;1.92;;
19436;SDS011;9854;50.968;4.168;2023-07-13T14:31:38;7.35;;;1.60;;
19436;SDS011;9854;50.968;4.168;2023-07-13T14:34:04;9.70;;;2.17;;
19436;SDS011;9854;50.968;4.168;2023-07-13T14:36:30;9.25;;;1.60;;
19436;SDS011;9854;50.968;4.168;2023-07-13T14:39:23;5.80;;;1.98;;
19436;SDS011;9854;50.968;4.168;2023-07-13T14:41:50;5.03;;;1.63;;
19436;SDS011;9854;50.968;4.168;2023-07-13T14:44:20;6.53;;;1.60;;
19436;SDS011;9854;50.968;4.168;2023-07-13T14:46:48;4.05;;;1.63;;
19436;SDS011;9854;50.968;4.168;2023-07-13T14:51:58;3.25;;;1.60;;
19436;SDS011;9854;50.968;4.168;2023-07-13T14:54:35;3.55;;;1.42;;
19436;SDS011;9854;50.968;4.168;2023-07-13T14:57:07;4.35;;;1.35;;
19436;SDS011;9854;50.968;4.168;2023-07-13T14:59:38;3.30;;;1.40;;
19436;SDS011;9854;50.968;4.168;2023-07-13T15:02:09;4.22;;;1.40;;
19436;SDS011;9854;50.968;4.168;2023-07-13T15:04:39;2.13;;;1.20;;
19436;SDS011;9854;50.968;4.168;2023-07-13T15:07:05;2.53;;;1.58;;
19436;SDS011;9854;50.968;4.168;2023-07-13T15:09:34;5.22;;;1.27;;
19436;SDS011;9854;50.968;4.168;2023-07-13T15:12:00;1.92;;;1.20;;
19436;SDS011;9854;50.968;4.168;2023-07-13T15:14:25;2.58;;;1.15;;
19436;SDS011;9854;50.968;4.168;2023-07-13T15:16:52;3.47;;;1.13;;
19436;SDS011;9854;50.968;4.168;2023-07-13T15:19:21;2.25;;;1.10;;
19436;SDS011;9854;50.968;4.168;2023-07-13T15:21:48;2.42;;;1.50;;
19436;SDS011;9854;50.968;4.168;2023-07-13T15:24:15;2.42;;;1.25;;
19436;SDS011;9854;50.968;4.168;2023-07-13T15:26:40;4.20;;;1.30;;
19436;SDS011;9854;50.968;4.168;2023-07-13T15:29:10;3.13;;;1.27;;
19436;SDS011;9854;50.968;4.168;2023-07-13T15:31:36;4.95;;;1.25;;
19436;SDS011;9854;50.968;4.168;2023-07-13T15:34:04;2.63;;;1.10;;
19436;SDS011;9854;50.968;4.168;2023-07-13T15:36:39;6.82;;;1.52;;
19436;SDS011;9854;50.968;4.168;2023-07-13T15:39:05;3.92;;;1.85;;
19436;SDS011;9854;50.968;4.168;2023-07-13T15:41:31;2.97;;;1.30;;
19436;SDS011;9854;50.968;4.168;2023-07-13T15:43:59;2.30;;;1.20;;
19436;SDS011;9854;50.968;4.168;2023-07-13T15:46:29;6.22;;;1.25;;